createdAt,value
2017-01-13T00:00:54.654Z,0
2017-01-13T00:01:54.646Z,0
2017-01-13T00:02:54.646Z,0
2017-01-13T00:03:54.618Z,0
2017-01-13T00:04:54.626Z,0
2017-01-13T00:05:54.206Z,0
2017-01-13T00:06:54.618Z,0
2017-01-13T00:07:54.214Z,0
2017-01-13T00:08:54.598Z,0
2017-01-13T00:09:54.206Z,0
2017-01-13T00:10:53.779Z,0
2017-01-13T00:11:54.194Z,0
2017-01-13T00:12:53.365Z,0
2017-01-13T00:13:54.183Z,0
2017-01-13T00:14:53.759Z,0
2017-01-13T00:15:53.759Z,0
2017-01-13T00:16:54.583Z,0
2017-01-13T00:17:54.195Z,0
2017-01-13T00:18:54.154Z,0
2017-01-13T00:19:54.595Z,0
2017-01-13T00:20:54.571Z,0
2017-01-13T00:21:53.747Z,0
2017-01-13T00:22:53.323Z,0
2017-01-13T00:23:53.735Z,0
2017-01-13T00:24:54.143Z,0
2017-01-13T00:25:53.315Z,0
2017-01-13T00:26:54.132Z,0
2017-01-13T00:27:54.551Z,0
2017-01-13T00:28:54.539Z,0
2017-01-13T00:29:54.535Z,0
2017-01-13T00:30:54.135Z,0
2017-01-13T00:31:53.711Z,0
2017-01-13T00:32:53.696Z,0
2017-01-13T00:33:54.115Z,0
2017-01-13T00:34:54.111Z,0
2017-01-13T00:35:54.107Z,0
2017-01-13T00:36:53.696Z,0
2017-01-13T00:37:53.695Z,0
2017-01-13T00:38:54.099Z,4
2017-01-13T00:39:54.100Z,4
2017-01-13T00:40:54.095Z,0
2017-01-13T00:41:53.676Z,0
2017-01-13T00:42:54.075Z,0
2017-01-13T00:43:53.667Z,0
2017-01-13T00:44:53.660Z,0
2017-01-13T00:45:54.076Z,0
2017-01-13T00:46:54.068Z,0
2017-01-13T00:47:54.095Z,0
2017-01-13T00:48:54.072Z,0
2017-01-13T00:49:54.060Z,0
2017-01-13T00:50:53.232Z,0
2017-01-13T00:51:53.644Z,0
2017-01-13T00:52:54.459Z,0
2017-01-13T00:53:54.044Z,0
2017-01-13T00:54:54.044Z,0
2017-01-13T00:55:54.448Z,0
2017-01-13T00:56:54.040Z,0
2017-01-13T00:57:54.044Z,0
2017-01-13T00:58:54.036Z,0
2017-01-13T00:59:53.196Z,0
2017-01-13T01:00:54.020Z,0
2017-01-13T01:01:54.432Z,0
2017-01-13T01:02:54.020Z,0
2017-01-13T01:03:54.017Z,0
2017-01-13T01:04:54.420Z,0
2017-01-13T01:05:54.416Z,0
2017-01-13T01:06:54.416Z,0
2017-01-13T01:07:53.580Z,0
2017-01-13T01:08:53.997Z,0
2017-01-13T01:09:54.408Z,0
2017-01-13T01:10:53.997Z,0
2017-01-13T01:11:54.393Z,0
2017-01-13T01:12:53.989Z,0
2017-01-13T01:13:54.393Z,0
2017-01-13T01:14:53.557Z,0
2017-01-13T01:15:53.972Z,0
2017-01-13T01:16:53.562Z,0
2017-01-13T01:17:54.381Z,0
2017-01-13T01:18:54.369Z,0
2017-01-13T01:19:53.963Z,0
2017-01-13T01:20:54.373Z,0
2017-01-13T01:21:54.361Z,0
2017-01-13T01:22:53.541Z,0
2017-01-13T01:23:53.537Z,0
2017-01-13T01:24:54.353Z,0
2017-01-13T01:25:54.357Z,0
2017-01-13T01:26:54.341Z,0
2017-01-13T01:27:54.341Z,0
2017-01-13T01:28:53.929Z,0
2017-01-13T01:29:53.929Z,0
2017-01-13T01:30:53.510Z,0
2017-01-13T01:31:53.501Z,0
2017-01-13T01:32:53.921Z,0
2017-01-13T01:33:53.906Z,0
2017-01-13T01:34:53.902Z,0
2017-01-13T01:35:54.322Z,0
2017-01-13T01:36:53.901Z,0
2017-01-13T01:37:53.494Z,0
2017-01-13T01:38:53.486Z,0
2017-01-13T01:39:53.470Z,0
2017-01-13T01:40:54.298Z,0
2017-01-13T01:41:54.310Z,0
2017-01-13T01:42:53.882Z,0
2017-01-13T01:43:54.290Z,0
2017-01-13T01:44:54.293Z,0
2017-01-13T01:45:53.462Z,0
2017-01-13T01:46:53.454Z,0
2017-01-13T01:47:53.878Z,0
2017-01-13T01:48:54.274Z,0
2017-01-13T01:49:53.854Z,0
2017-01-13T01:50:54.267Z,0
2017-01-13T01:51:54.266Z,0
2017-01-13T01:52:53.902Z,0
2017-01-13T01:53:53.438Z,0
2017-01-13T01:54:53.843Z,0
2017-01-13T01:55:54.399Z,0
2017-01-13T01:56:54.246Z,0
2017-01-13T01:57:53.834Z,0
2017-01-13T01:58:54.263Z,0
2017-01-13T01:59:53.015Z,0
2017-01-13T02:00:53.407Z,0
2017-01-13T02:01:53.815Z,0
2017-01-13T02:02:54.235Z,0
2017-01-13T02:03:54.239Z,0
2017-01-13T02:04:53.815Z,0
2017-01-13T02:05:53.807Z,0
2017-01-13T02:06:54.206Z,0
2017-01-13T02:07:54.207Z,0
2017-01-13T02:08:53.795Z,0
2017-01-13T02:09:53.791Z,0
2017-01-13T02:10:54.207Z,0
2017-01-13T02:11:53.783Z,0
2017-01-13T02:12:53.363Z,0
2017-01-13T02:13:53.775Z,0
2017-01-13T02:14:53.367Z,0
2017-01-13T02:15:54.187Z,0
2017-01-13T02:16:53.763Z,0
2017-01-13T02:17:54.179Z,0
2017-01-13T02:18:53.767Z,0
2017-01-13T02:19:54.171Z,0
2017-01-13T02:20:53.760Z,0
2017-01-13T02:21:53.752Z,0
2017-01-13T02:22:53.751Z,0
2017-01-13T02:23:53.772Z,0
2017-01-13T02:24:53.748Z,0
2017-01-13T02:25:54.148Z,0
2017-01-13T02:26:54.148Z,0
2017-01-13T02:27:53.724Z,0
2017-01-13T02:28:54.140Z,0
2017-01-13T02:29:52.892Z,0
2017-01-13T02:30:53.728Z,0
2017-01-13T02:31:53.304Z,0
2017-01-13T02:32:53.716Z,0
2017-01-13T02:33:53.708Z,0
2017-01-13T02:34:53.700Z,0
2017-01-13T02:35:54.140Z,0
2017-01-13T02:36:54.112Z,0
2017-01-13T02:37:54.112Z,0
2017-01-13T02:38:53.692Z,0
2017-01-13T02:39:53.288Z,0
2017-01-13T02:40:54.100Z,0
2017-01-13T02:41:54.092Z,0
2017-01-13T02:42:53.681Z,0
2017-01-13T02:43:53.676Z,0
2017-01-13T02:44:53.672Z,0
2017-01-13T02:45:53.261Z,0
2017-01-13T02:46:54.085Z,0
2017-01-13T02:47:53.249Z,0
2017-01-13T02:48:53.665Z,0
2017-01-13T02:49:53.240Z,0
2017-01-13T02:50:54.053Z,0
2017-01-13T02:51:53.653Z,0
2017-01-13T02:52:54.061Z,0
2017-01-13T02:53:53.229Z,0
2017-01-13T02:54:54.077Z,0
2017-01-13T02:55:54.197Z,0
2017-01-13T02:56:54.037Z,0
2017-01-13T02:57:53.629Z,0
2017-01-13T02:58:54.037Z,0
2017-01-13T02:59:54.033Z,0
2017-01-13T03:00:53.621Z,0
2017-01-13T03:01:53.621Z,0
2017-01-13T03:02:53.617Z,0
2017-01-13T03:03:54.025Z,0
2017-01-13T03:04:54.021Z,0
2017-01-13T03:05:53.189Z,0
2017-01-13T03:06:54.005Z,0
2017-01-13T03:07:53.593Z,0
2017-01-13T03:08:53.181Z,0
2017-01-13T03:09:53.586Z,0
2017-01-13T03:10:53.577Z,0
2017-01-13T03:11:53.574Z,0
2017-01-13T03:12:53.205Z,0
2017-01-13T03:13:53.593Z,0
2017-01-13T03:14:53.162Z,0
2017-01-13T03:15:53.566Z,0
2017-01-13T03:16:53.558Z,0
2017-01-13T03:17:53.554Z,0
2017-01-13T03:18:53.562Z,0
2017-01-13T03:19:53.142Z,0
2017-01-13T03:20:53.582Z,0
2017-01-13T03:21:53.546Z,0
2017-01-13T03:22:53.950Z,0
2017-01-13T03:23:53.118Z,0
2017-01-13T03:24:53.950Z,0
2017-01-13T03:25:53.522Z,0
2017-01-13T03:26:53.530Z,0
2017-01-13T03:27:53.519Z,0
2017-01-13T03:28:53.938Z,0
2017-01-13T03:29:53.527Z,0
2017-01-13T03:30:53.941Z,0
2017-01-13T03:31:53.506Z,0
2017-01-13T03:32:53.098Z,0
2017-01-13T03:33:53.902Z,0
2017-01-13T03:34:53.914Z,0
2017-01-13T03:35:53.490Z,0
2017-01-13T03:36:53.490Z,0
2017-01-13T03:37:53.482Z,0
2017-01-13T03:38:53.482Z,0
2017-01-13T03:39:53.071Z,0
2017-01-13T03:40:53.482Z,0
2017-01-13T03:41:53.475Z,0
2017-01-13T03:42:53.054Z,0
2017-01-13T03:43:53.878Z,0
2017-01-13T03:44:53.467Z,0
2017-01-13T03:45:53.459Z,0
2017-01-13T03:46:53.898Z,0
2017-01-13T03:47:53.447Z,0
2017-01-13T03:48:53.451Z,0
2017-01-13T03:49:53.446Z,0
2017-01-13T03:50:53.030Z,0
2017-01-13T03:51:53.027Z,0
2017-01-13T03:52:53.027Z,0
2017-01-13T03:53:53.431Z,0
2017-01-13T03:54:53.455Z,0
2017-01-13T03:55:52.603Z,0
2017-01-13T03:56:53.411Z,0
2017-01-13T03:57:53.006Z,0
2017-01-13T03:58:52.591Z,0
2017-01-13T03:59:53.411Z,0
2017-01-13T04:00:53.407Z,0
2017-01-13T04:01:53.811Z,4
2017-01-13T04:02:53.815Z,4
2017-01-13T04:03:52.979Z,0
2017-01-13T04:04:52.980Z,0
2017-01-13T04:05:52.563Z,0
2017-01-13T04:06:53.379Z,0
2017-01-13T04:07:53.387Z,0
2017-01-13T04:08:53.375Z,0
2017-01-13T04:09:53.383Z,0
2017-01-13T04:10:53.784Z,0
2017-01-13T04:11:53.780Z,0
2017-01-13T04:12:53.396Z,0
2017-01-13T04:13:52.943Z,0
2017-01-13T04:14:53.356Z,0
2017-01-13T04:15:53.348Z,0
2017-01-13T04:16:53.344Z,0
2017-01-13T04:17:53.345Z,0
2017-01-13T04:18:53.336Z,0
2017-01-13T04:19:53.743Z,0
2017-01-13T04:20:53.328Z,0
2017-01-13T04:21:53.332Z,0
2017-01-13T04:22:52.908Z,0
2017-01-13T04:23:52.916Z,0
2017-01-13T04:24:53.316Z,4
2017-01-13T04:25:53.308Z,4
2017-01-13T04:26:53.720Z,0
2017-01-13T04:27:53.308Z,0
2017-01-13T04:28:52.888Z,0
2017-01-13T04:29:52.888Z,0
2017-01-13T04:30:53.708Z,0
2017-01-13T04:31:53.292Z,0
2017-01-13T04:32:53.320Z,0
2017-01-13T04:33:53.284Z,0
2017-01-13T04:34:53.681Z,0
2017-01-13T04:35:53.692Z,0
2017-01-13T04:36:52.856Z,0
2017-01-13T04:37:53.684Z,0
2017-01-13T04:38:52.865Z,0
2017-01-13T04:39:53.260Z,4
2017-01-13T04:40:53.668Z,4
2017-01-13T04:41:53.253Z,0
2017-01-13T04:42:53.249Z,0
2017-01-13T04:43:53.653Z,0
2017-01-13T04:44:52.828Z,0
2017-01-13T04:45:52.825Z,0
2017-01-13T04:46:52.821Z,0
2017-01-13T04:47:53.237Z,0
2017-01-13T04:48:52.813Z,0
2017-01-13T04:49:53.225Z,0
2017-01-13T04:50:53.637Z,0
2017-01-13T04:51:53.221Z,0
2017-01-13T04:52:53.261Z,0
2017-01-13T04:53:53.621Z,0
2017-01-13T04:54:52.821Z,0
2017-01-13T04:55:52.801Z,0
2017-01-13T04:56:53.193Z,0
2017-01-13T04:57:53.620Z,0
2017-01-13T04:58:53.605Z,0
2017-01-13T04:59:53.185Z,0
2017-01-13T05:00:53.188Z,0
2017-01-13T05:01:53.180Z,4
2017-01-13T05:02:53.172Z,4
2017-01-13T05:03:53.168Z,0
2017-01-13T05:04:53.608Z,0
2017-01-13T05:05:53.580Z,0
2017-01-13T05:06:52.752Z,0
2017-01-13T05:07:53.159Z,0
2017-01-13T05:08:53.599Z,0
2017-01-13T05:09:53.552Z,0
2017-01-13T05:10:53.148Z,0
2017-01-13T05:11:52.735Z,0
2017-01-13T05:12:53.147Z,0
2017-01-13T05:13:52.747Z,0
2017-01-13T05:14:53.136Z,0
2017-01-13T05:15:53.127Z,0
2017-01-13T05:16:53.135Z,0
2017-01-13T05:17:53.119Z,0
2017-01-13T05:18:53.139Z,0
2017-01-13T05:19:53.111Z,4
2017-01-13T05:20:53.519Z,4
2017-01-13T05:21:53.103Z,0
2017-01-13T05:22:53.099Z,0
2017-01-13T05:23:53.511Z,0
2017-01-13T05:24:53.503Z,0
2017-01-13T05:25:53.499Z,0
2017-01-13T05:26:53.083Z,0
2017-01-13T05:27:53.083Z,0
2017-01-13T05:28:53.087Z,0
2017-01-13T05:29:53.079Z,0
2017-01-13T05:30:53.067Z,0
2017-01-13T05:31:53.483Z,0
2017-01-13T05:32:53.059Z,0
2017-01-13T05:33:53.063Z,0
2017-01-13T05:34:53.467Z,0
2017-01-13T05:35:53.055Z,0
2017-01-13T05:36:53.459Z,0
2017-01-13T05:37:53.043Z,0
2017-01-13T05:38:53.039Z,0
2017-01-13T05:39:53.031Z,4
2017-01-13T05:40:52.207Z,4
2017-01-13T05:41:53.019Z,0
2017-01-13T05:42:52.603Z,0
2017-01-13T05:43:53.018Z,0
2017-01-13T05:44:53.448Z,0
2017-01-13T05:45:53.419Z,0
2017-01-13T05:46:53.423Z,0
2017-01-13T05:47:52.595Z,0
2017-01-13T05:48:53.411Z,0
2017-01-13T05:49:52.999Z,0
2017-01-13T05:50:52.979Z,0
2017-01-13T05:51:52.979Z,0
2017-01-13T05:52:53.388Z,0
2017-01-13T05:53:53.387Z,0
2017-01-13T05:54:52.985Z,0
2017-01-13T05:55:52.985Z,0
2017-01-13T05:56:52.563Z,0
2017-01-13T05:57:53.375Z,0
2017-01-13T05:58:52.968Z,0
2017-01-13T05:59:52.551Z,0
2017-01-13T06:00:53.364Z,0
2017-01-13T06:01:53.368Z,0
2017-01-13T06:02:52.539Z,0
2017-01-13T06:03:52.528Z,0
2017-01-13T06:04:53.348Z,0
2017-01-13T06:05:52.927Z,0
2017-01-13T06:06:53.344Z,0
2017-01-13T06:07:52.924Z,0
2017-01-13T06:08:53.332Z,0
2017-01-13T06:09:52.912Z,0
2017-01-13T06:10:52.912Z,0
2017-01-13T06:11:52.912Z,0
2017-01-13T06:12:52.904Z,0
2017-01-13T06:13:52.900Z,0
2017-01-13T06:14:53.316Z,0
2017-01-13T06:15:52.492Z,0
2017-01-13T06:16:52.897Z,0
2017-01-13T06:17:52.880Z,0
2017-01-13T06:18:52.884Z,0
2017-01-13T06:19:53.296Z,0
2017-01-13T06:20:52.881Z,0
2017-01-13T06:21:52.457Z,0
2017-01-13T06:22:53.285Z,0
2017-01-13T06:23:52.872Z,0
2017-01-13T06:24:52.865Z,0
2017-01-13T06:25:52.445Z,0
2017-01-13T06:26:52.844Z,0
2017-01-13T06:27:52.852Z,0
2017-01-13T06:28:53.260Z,0
2017-01-13T06:29:52.848Z,0
2017-01-13T06:30:52.420Z,0
2017-01-13T06:31:53.236Z,0
2017-01-13T06:32:52.824Z,0
2017-01-13T06:33:53.244Z,0
2017-01-13T06:34:52.820Z,0
2017-01-13T06:35:53.260Z,0
2017-01-13T06:36:52.812Z,0
2017-01-13T06:37:52.812Z,0
2017-01-13T06:38:53.216Z,0
2017-01-13T06:39:52.808Z,0
2017-01-13T06:40:52.800Z,0
2017-01-13T06:41:53.204Z,0
2017-01-13T06:42:52.788Z,0
2017-01-13T06:43:52.784Z,4
2017-01-13T06:44:53.196Z,4
2017-01-13T06:45:52.372Z,0
2017-01-13T06:46:52.772Z,4
2017-01-13T06:47:52.772Z,4
2017-01-13T06:48:52.764Z,4
2017-01-13T06:49:52.358Z,4
2017-01-13T06:50:53.168Z,8
2017-01-13T06:51:53.166Z,8
2017-01-13T06:52:52.341Z,4
2017-01-13T06:53:52.753Z,8
2017-01-13T06:54:52.744Z,12
2017-01-13T06:55:52.333Z,16
2017-01-13T06:56:52.729Z,12
2017-01-13T06:57:53.141Z,16
2017-01-13T06:58:53.133Z,16
2017-01-13T06:59:52.729Z,16
2017-01-13T07:00:52.721Z,16
2017-01-13T07:01:52.721Z,16
2017-01-13T07:02:52.297Z,24
2017-01-13T07:03:52.701Z,32
2017-01-13T07:04:53.117Z,36
2017-01-13T07:05:52.729Z,32
2017-01-13T07:06:52.282Z,36
2017-01-13T07:07:53.101Z,36
2017-01-13T07:08:53.105Z,44
2017-01-13T07:09:52.682Z,48
2017-01-13T07:10:52.685Z,52
2017-01-13T07:11:52.297Z,56
2017-01-13T07:12:52.685Z,56
2017-01-13T07:13:52.261Z,64
2017-01-13T07:14:52.664Z,68
2017-01-13T07:15:52.662Z,72
2017-01-13T07:16:52.665Z,72
2017-01-13T07:17:53.066Z,80
2017-01-13T07:18:53.054Z,92
2017-01-13T07:19:52.654Z,96
2017-01-13T07:20:52.246Z,104
2017-01-13T07:21:53.354Z,108
2017-01-13T07:22:53.042Z,112
2017-01-13T07:23:53.038Z,104
2017-01-13T07:24:52.219Z,112
2017-01-13T07:25:52.630Z,120
2017-01-13T07:26:52.630Z,116
2017-01-13T07:27:52.207Z,116
2017-01-13T07:28:53.026Z,124
2017-01-13T07:29:52.615Z,140
2017-01-13T07:30:52.187Z,144
2017-01-13T07:31:52.603Z,156
2017-01-13T07:32:53.007Z,172
2017-01-13T07:33:52.591Z,180
2017-01-13T07:34:52.595Z,192
2017-01-13T07:35:52.587Z,208
2017-01-13T07:36:52.580Z,208
2017-01-13T07:37:52.995Z,208
2017-01-13T07:38:52.567Z,208
2017-01-13T07:39:52.983Z,208
2017-01-13T07:40:52.572Z,212
2017-01-13T07:41:52.976Z,236
2017-01-13T07:42:52.553Z,264
2017-01-13T07:43:52.143Z,292
2017-01-13T07:44:52.964Z,320
2017-01-13T07:45:51.724Z,360
2017-01-13T07:46:53.104Z,384
2017-01-13T07:47:52.536Z,392
2017-01-13T07:48:52.584Z,420
2017-01-13T07:49:52.532Z,412
2017-01-13T07:50:51.700Z,412
2017-01-13T07:51:52.529Z,480
2017-01-13T07:52:52.933Z,556
2017-01-13T07:53:52.933Z,620
2017-01-13T07:54:52.513Z,684
2017-01-13T07:55:52.509Z,720
2017-01-13T07:56:52.509Z,752
2017-01-13T07:57:51.674Z,784
2017-01-13T07:58:52.494Z,812
2017-01-13T07:59:52.082Z,836
2017-01-13T08:00:52.490Z,864
2017-01-13T08:01:52.070Z,888
2017-01-13T08:02:52.485Z,908
2017-01-13T08:03:52.482Z,920
2017-01-13T08:04:52.890Z,928
2017-01-13T08:05:52.474Z,932
2017-01-13T08:06:52.879Z,944
2017-01-13T08:07:52.463Z,976
2017-01-13T08:08:52.050Z,1012
2017-01-13T08:09:52.458Z,1020
2017-01-13T08:10:52.447Z,1036
2017-01-13T08:11:52.870Z,1096
2017-01-13T08:12:52.059Z,1092
2017-01-13T08:13:52.031Z,1176
2017-01-13T08:14:52.439Z,1208
2017-01-13T08:15:52.431Z,1236
2017-01-13T08:16:52.435Z,1256
2017-01-13T08:17:52.011Z,1276
2017-01-13T08:18:52.431Z,1280
2017-01-13T08:19:52.419Z,1280
2017-01-13T08:20:52.424Z,1260
2017-01-13T08:21:52.971Z,1228
2017-01-13T08:22:52.404Z,1156
2017-01-13T08:23:51.992Z,1092
2017-01-13T08:24:52.396Z,1052
2017-01-13T08:25:51.976Z,1016
2017-01-13T08:26:52.808Z,1016
2017-01-13T08:27:51.980Z,1024
2017-01-13T08:28:51.979Z,1040
2017-01-13T08:29:52.800Z,1056
2017-01-13T08:30:52.789Z,1064
2017-01-13T08:31:52.521Z,1056
2017-01-13T08:32:52.793Z,1036
2017-01-13T08:33:51.961Z,1028
2017-01-13T08:34:52.369Z,1020
2017-01-13T08:35:51.953Z,1012
2017-01-13T08:36:52.357Z,1000
2017-01-13T08:37:52.349Z,964
2017-01-13T08:38:52.353Z,936
2017-01-13T08:39:52.337Z,916
2017-01-13T08:40:52.749Z,908
2017-01-13T08:41:52.341Z,916
2017-01-13T08:42:52.324Z,956
2017-01-13T08:43:52.322Z,992
2017-01-13T08:44:52.331Z,1040
2017-01-13T08:45:52.322Z,1048
2017-01-13T08:46:52.330Z,1048
2017-01-13T08:47:52.722Z,1036
2017-01-13T08:48:51.494Z,1032
2017-01-13T08:49:52.322Z,1044
2017-01-13T08:50:52.302Z,1056
2017-01-13T08:51:52.714Z,1064
2017-01-13T08:52:52.302Z,1128
2017-01-13T08:53:52.298Z,1200
2017-01-13T08:54:52.703Z,1272
2017-01-13T08:55:52.726Z,1264
2017-01-13T08:56:52.698Z,1320
2017-01-13T08:57:52.686Z,1344
2017-01-13T08:58:52.278Z,1300
2017-01-13T08:59:51.863Z,1352
2017-01-13T09:00:52.702Z,1420
2017-01-13T09:01:51.854Z,1492
2017-01-13T09:02:52.679Z,1552
2017-01-13T09:03:52.259Z,1464
2017-01-13T09:04:52.267Z,1480
2017-01-13T09:05:51.835Z,1476
2017-01-13T09:06:51.843Z,1572
2017-01-13T09:07:52.239Z,1592
2017-01-13T09:08:51.415Z,1624
2017-01-13T09:09:52.232Z,1864
2017-01-13T09:10:52.243Z,1984
2017-01-13T09:11:51.815Z,2108
2017-01-13T09:12:52.223Z,2180
2017-01-13T09:13:52.236Z,2224
2017-01-13T09:14:51.807Z,2268
2017-01-13T09:15:52.623Z,2260
2017-01-13T09:16:52.364Z,2216
2017-01-13T09:17:52.627Z,2044
2017-01-13T09:18:52.208Z,2060
2017-01-13T09:19:51.792Z,2020
2017-01-13T09:20:52.191Z,1880
2017-01-13T09:21:52.180Z,1792
2017-01-13T09:22:51.780Z,1672
2017-01-13T09:23:52.180Z,1620
2017-01-13T09:24:51.776Z,1568
2017-01-13T09:25:51.768Z,1520
2017-01-13T09:26:51.780Z,1460
2017-01-13T09:27:52.196Z,1440
2017-01-13T09:28:52.580Z,1512
2017-01-13T09:29:52.576Z,1416
2017-01-13T09:30:51.748Z,1368
2017-01-13T09:31:51.752Z,1224
2017-01-13T09:32:51.740Z,1032
2017-01-13T09:33:52.148Z,980
2017-01-13T09:34:52.148Z,928
2017-01-13T09:35:52.136Z,916
2017-01-13T09:36:51.732Z,1000
2017-01-13T09:37:52.548Z,960
2017-01-13T09:38:52.136Z,1004
2017-01-13T09:39:51.724Z,1020
2017-01-13T09:40:52.113Z,860
2017-01-13T09:41:52.541Z,780
2017-01-13T09:42:52.113Z,776
2017-01-13T09:43:52.140Z,784
2017-01-13T09:44:52.109Z,804
2017-01-13T09:45:52.521Z,844
2017-01-13T09:46:52.521Z,884
2017-01-13T09:47:51.688Z,920
2017-01-13T09:48:52.093Z,824
2017-01-13T09:49:52.493Z,796
2017-01-13T09:50:51.677Z,736
2017-01-13T09:51:52.085Z,764
2017-01-13T09:52:52.497Z,800
2017-01-13T09:53:52.489Z,784
2017-01-13T09:54:52.077Z,764
2017-01-13T09:55:52.477Z,912
2017-01-13T09:56:52.069Z,912
2017-01-13T09:57:52.061Z,900
2017-01-13T09:58:52.062Z,1024
2017-01-13T09:59:52.470Z,1476
2017-01-13T10:00:52.058Z,2072
2017-01-13T10:01:52.054Z,2636
2017-01-13T10:02:52.053Z,2996
2017-01-13T10:03:52.049Z,3260
2017-01-13T10:04:52.049Z,3324
2017-01-13T10:05:52.450Z,3280
2017-01-13T10:06:52.445Z,3368
2017-01-13T10:07:52.030Z,3408
2017-01-13T10:08:52.438Z,3412
2017-01-13T10:09:52.430Z,3396
2017-01-13T10:10:51.602Z,3392
2017-01-13T10:11:52.434Z,3380
2017-01-13T10:12:52.430Z,3368
2017-01-13T10:13:52.430Z,3356
2017-01-13T10:14:52.414Z,3344
2017-01-13T10:15:51.591Z,3332
2017-01-13T10:16:51.993Z,3312
2017-01-13T10:17:51.997Z,3292
2017-01-13T10:18:51.993Z,3264
2017-01-13T10:19:51.577Z,3240
2017-01-13T10:20:51.581Z,3208
2017-01-13T10:21:52.501Z,3168
2017-01-13T10:22:51.969Z,3156
2017-01-13T10:23:51.965Z,3136
2017-01-13T10:24:51.968Z,3096
2017-01-13T10:25:51.965Z,3040
2017-01-13T10:26:51.960Z,2980
2017-01-13T10:27:51.956Z,2912
2017-01-13T10:28:51.968Z,2836
2017-01-13T10:29:51.953Z,2752
2017-01-13T10:30:51.948Z,2660
2017-01-13T10:31:52.357Z,2616
2017-01-13T10:32:52.348Z,2572
2017-01-13T10:33:51.531Z,2468
2017-01-13T10:34:51.520Z,2400
2017-01-13T10:35:51.936Z,2356
2017-01-13T10:36:51.524Z,2328
2017-01-13T10:37:51.928Z,2300
2017-01-13T10:38:51.509Z,2296
2017-01-13T10:39:51.916Z,2296
2017-01-13T10:40:52.328Z,2328
2017-01-13T10:41:51.912Z,2340
2017-01-13T10:42:51.904Z,2340
2017-01-13T10:43:51.492Z,2332
2017-01-13T10:44:51.908Z,2320
2017-01-13T10:45:51.904Z,2308
2017-01-13T10:46:51.900Z,2328
2017-01-13T10:47:52.308Z,2388
2017-01-13T10:48:51.896Z,2436
2017-01-13T10:49:52.300Z,2468
2017-01-13T10:50:51.872Z,2500
2017-01-13T10:51:52.288Z,2512
2017-01-13T10:52:51.876Z,2512
2017-01-13T10:53:51.880Z,2512
2017-01-13T10:54:51.472Z,2504
2017-01-13T10:55:51.876Z,2476
2017-01-13T10:56:51.864Z,2484
2017-01-13T10:57:51.856Z,2488
2017-01-13T10:58:51.858Z,2432
2017-01-13T10:59:52.268Z,2436
2017-01-13T11:00:52.268Z,2416
2017-01-13T11:01:52.260Z,2440
2017-01-13T11:02:51.848Z,2560
2017-01-13T11:03:51.844Z,2556
2017-01-13T11:04:51.436Z,2560
2017-01-13T11:05:52.256Z,2872
2017-01-13T11:06:51.428Z,2760
2017-01-13T11:07:51.432Z,2540
2017-01-13T11:08:52.248Z,2516
2017-01-13T11:09:51.828Z,2548
2017-01-13T11:10:51.412Z,2680
2017-01-13T11:11:51.825Z,2896
2017-01-13T11:12:52.221Z,2696
2017-01-13T11:13:51.816Z,2568
2017-01-13T11:14:51.809Z,2556
2017-01-13T11:15:51.817Z,2580
2017-01-13T11:16:52.225Z,2404
2017-01-13T11:17:51.392Z,2348
2017-01-13T11:18:52.213Z,2424
2017-01-13T11:19:52.205Z,2288
2017-01-13T11:20:51.801Z,2156
2017-01-13T11:21:50.965Z,2124
2017-01-13T11:22:51.801Z,2224
2017-01-13T11:23:51.789Z,2368
2017-01-13T11:24:51.789Z,2456
2017-01-13T11:25:51.785Z,2416
2017-01-13T11:26:51.786Z,2316
2017-01-13T11:27:51.785Z,2228
2017-01-13T11:28:51.773Z,2364
2017-01-13T11:29:51.777Z,2420
2017-01-13T11:30:51.773Z,2324
2017-01-13T11:31:52.174Z,2240
2017-01-13T11:32:51.765Z,2112
2017-01-13T11:33:51.757Z,1964
2017-01-13T11:34:51.338Z,1984
2017-01-13T11:35:51.374Z,1968
2017-01-13T11:36:51.750Z,2060
2017-01-13T11:37:52.158Z,2172
2017-01-13T11:38:52.154Z,2376
2017-01-13T11:39:52.158Z,2644
2017-01-13T11:40:51.738Z,2748
2017-01-13T11:41:52.150Z,2640
2017-01-13T11:42:51.310Z,2472
2017-01-13T11:43:51.730Z,2696
2017-01-13T11:44:52.135Z,2824
2017-01-13T11:45:51.726Z,2900
2017-01-13T11:46:51.318Z,2980
2017-01-13T11:47:51.718Z,3100
2017-01-13T11:48:52.130Z,3132
2017-01-13T11:49:51.334Z,3156
2017-01-13T11:50:51.303Z,3264
2017-01-13T11:51:52.118Z,3180
2017-01-13T11:52:51.702Z,2864
2017-01-13T11:53:51.699Z,2404
2017-01-13T11:54:51.278Z,2172
2017-01-13T11:55:52.107Z,2100
2017-01-13T11:56:51.695Z,2064
2017-01-13T11:57:51.275Z,2280
2017-01-13T11:58:51.278Z,2452
2017-01-13T11:59:51.679Z,2500
2017-01-13T12:00:51.679Z,2496
2017-01-13T12:01:52.135Z,2060
2017-01-13T12:02:51.259Z,1752
2017-01-13T12:03:51.671Z,1640
2017-01-13T12:04:51.667Z,1560
2017-01-13T12:05:52.071Z,1500
2017-01-13T12:06:51.243Z,1536
2017-01-13T12:07:52.063Z,1576
2017-01-13T12:08:51.644Z,1604
2017-01-13T12:09:51.240Z,1616
2017-01-13T12:10:52.063Z,1680
2017-01-13T12:11:51.643Z,1648
2017-01-13T12:12:51.224Z,1520
2017-01-13T12:13:51.652Z,1476
2017-01-13T12:14:51.640Z,1520
2017-01-13T12:15:51.640Z,1648
2017-01-13T12:16:51.224Z,1608
2017-01-13T12:17:51.636Z,1560
2017-01-13T12:18:51.644Z,1568
2017-01-13T12:19:52.032Z,1648
2017-01-13T12:20:51.624Z,1768
2017-01-13T12:21:51.616Z,1852
2017-01-13T12:22:51.616Z,1920
2017-01-13T12:23:51.616Z,1956
2017-01-13T12:24:52.021Z,2048
2017-01-13T12:25:51.608Z,2168
2017-01-13T12:26:51.609Z,2308
2017-01-13T12:27:52.016Z,2324
2017-01-13T12:28:52.009Z,2300
2017-01-13T12:29:52.008Z,2336
2017-01-13T12:30:51.996Z,2528
2017-01-13T12:31:51.188Z,2736
2017-01-13T12:32:51.997Z,2676
2017-01-13T12:33:51.981Z,2664
2017-01-13T12:34:51.608Z,2620
2017-01-13T12:35:51.581Z,2628
2017-01-13T12:36:51.985Z,2700
2017-01-13T12:37:51.573Z,2780
2017-01-13T12:38:51.981Z,3016
2017-01-13T12:39:51.569Z,3144
2017-01-13T12:40:51.977Z,3024
2017-01-13T12:41:51.154Z,2892
2017-01-13T12:42:51.558Z,2852
2017-01-13T12:43:51.145Z,3052
2017-01-13T12:44:51.557Z,3256
2017-01-13T12:45:51.554Z,3396
2017-01-13T12:46:51.569Z,3340
2017-01-13T12:47:51.953Z,3448
2017-01-13T12:48:51.126Z,3544
2017-01-13T12:49:51.953Z,3608
2017-01-13T12:50:51.130Z,3748
2017-01-13T12:51:51.534Z,3964
2017-01-13T12:52:51.526Z,3980
2017-01-13T12:53:51.114Z,3684
2017-01-13T12:54:51.934Z,3192
2017-01-13T12:55:51.934Z,2648
2017-01-13T12:56:51.522Z,2156
2017-01-13T12:57:51.510Z,1856
2017-01-13T12:58:51.510Z,1652
2017-01-13T12:59:51.510Z,1420
2017-01-13T13:00:51.094Z,1196
2017-01-13T13:01:51.506Z,1080
2017-01-13T13:02:51.506Z,832
2017-01-13T13:03:51.094Z,520
2017-01-13T13:04:51.078Z,384
2017-01-13T13:05:51.499Z,252
2017-01-13T13:06:51.086Z,180
2017-01-13T13:07:51.903Z,256
2017-01-13T13:08:51.070Z,376
2017-01-13T13:09:51.895Z,608
2017-01-13T13:10:51.890Z,796
2017-01-13T13:11:51.058Z,972
2017-01-13T13:12:51.062Z,1088
2017-01-13T13:13:51.503Z,1152
2017-01-13T13:14:51.463Z,1188
2017-01-13T13:15:51.463Z,1216
2017-01-13T13:16:51.459Z,1232
2017-01-13T13:17:51.463Z,1216
2017-01-13T13:18:51.039Z,1184
2017-01-13T13:19:51.867Z,1148
2017-01-13T13:20:51.451Z,1120
2017-01-13T13:21:51.447Z,1096
2017-01-13T13:22:51.855Z,1076
2017-01-13T13:23:51.443Z,1068
2017-01-13T13:24:51.431Z,1068
2017-01-13T13:25:51.847Z,1080
2017-01-13T13:26:51.843Z,1088
2017-01-13T13:27:51.427Z,1108
2017-01-13T13:28:51.031Z,1132
2017-01-13T13:29:51.839Z,1132
2017-01-13T13:30:51.823Z,1116
2017-01-13T13:31:51.007Z,1080
2017-01-13T13:32:51.415Z,1024
2017-01-13T13:33:51.823Z,984
2017-01-13T13:34:51.411Z,964
2017-01-13T13:35:51.396Z,1004
2017-01-13T13:36:51.814Z,1024
2017-01-13T13:37:51.396Z,1048
2017-01-13T13:38:51.811Z,1064
2017-01-13T13:39:51.400Z,1080
2017-01-13T13:40:51.391Z,1092
2017-01-13T13:41:50.972Z,1108
2017-01-13T13:42:51.384Z,1112
2017-01-13T13:43:51.387Z,1116
2017-01-13T13:44:51.383Z,1104
2017-01-13T13:45:51.788Z,1088
2017-01-13T13:46:51.779Z,1072
2017-01-13T13:47:51.780Z,1064
2017-01-13T13:48:51.357Z,1056
2017-01-13T13:49:50.947Z,1052
2017-01-13T13:50:51.772Z,1040
2017-01-13T13:51:51.359Z,1044
2017-01-13T13:52:51.759Z,1048
2017-01-13T13:53:51.347Z,1052
2017-01-13T13:54:50.527Z,1052
2017-01-13T13:55:51.391Z,1060
2017-01-13T13:56:51.327Z,1076
2017-01-13T13:57:51.323Z,1104
2017-01-13T13:58:51.339Z,1120
2017-01-13T13:59:51.326Z,1120
2017-01-13T14:00:51.322Z,1120
2017-01-13T14:01:51.329Z,1208
2017-01-13T14:02:50.498Z,1236
2017-01-13T14:03:51.722Z,1228
2017-01-13T14:04:51.314Z,1224